CA-0350 weather

Public forecast

Using degrees Celsius for public forecast. Weather courtesy of forecast.io.

Closest aviation weather report (METAR) to St-Gabriel-De-Brandon Airport

Closest report is Trois-Rivières Airport, 29.2 nm (54.0 km) E. Retrieved 2020/08/09 13:00 UTC (45 minutes ago):

CYRQ 091300Z AUTO 22008KT 9SM FEW095 BKN180 BKN210 21/19 A3003 RMK SLP170 DENSITY ALT 800FT

Closest aviation forecast (TAF) to St-Gabriel-De-Brandon Airport

Closest forecast is Trois-Rivières Airport, 29.2 nm (54.0 km) E. Retrieved 2020/08/09 14:00 UTC (0 seconds ago):

TAF CYRQ 091346Z 0914/1002 21010KT P6SM SCT080 BKN180 FM091800 22012KT P6SM FEW040 SCT140 RMK FCST BASED ON AUTO OBS NXT FCST BY 092000Z